Time;durP1;ratioP1;P1;durP2;ratioP2;P2;SDS_P1;SDS_P2;PMS_P1;PMS_P2;Temp;Humidity;BMP_temperature;BMP_pressure;BME280_temperature;BME280_humidity;BME280_pressure;Samples;Min_cycle;Max_cycle;Signal;HPM_P1;HPM_P2
2021/11/26 00:01:06;;;;;;;43.35;17.60;;;;;;;;;;5023502;28;20061;-68
2021/11/26 00:03:33;;;;;;;48.55;16.05;;;;;;;;;;5022168;28;20049;-68
2021/11/26 00:06:00;;;;;;;46.00;16.25;;;;;;;;;;5023685;28;20104;-68
2021/11/26 00:08:27;;;;;;;49.53;17.58;;;;;;;;;;5022836;28;20061;-68
2021/11/26 00:10:54;;;;;;;50.65;16.17;;;;;;;;;;5027115;28;20053;-68
2021/11/26 00:13:26;;;;;;;53.05;17.85;;;;;;;;;;5029335;28;20045;-68
2021/11/26 00:15:58;;;;;;;50.30;17.20;;;;;;;;;;5029162;28;20132;-68
2021/11/26 00:18:26;;;;;;;47.45;16.20;;;;;;;;;;5026470;28;20088;-68
2021/11/26 00:20:52;;;;;;;46.45;17.38;;;;;;;;;;5026734;28;20042;-68
2021/11/26 00:23:20;;;;;;;56.63;19.95;;;;;;;;;;5029747;28;20065;-68
2021/11/26 00:25:46;;;;;;;45.65;16.38;;;;;;;;;;5027753;28;20170;-68
2021/11/26 00:28:13;;;;;;;52.58;18.23;;;;;;;;;;5026781;28;20088;-68
2021/11/26 00:30:39;;;;;;;47.97;16.80;;;;;;;;;;5024976;28;20049;-68
2021/11/26 00:33:07;;;;;;;60.08;20.33;;;;;;;;;;5028037;28;20077;-68
2021/11/26 00:35:34;;;;;;;57.20;17.20;;;;;;;;;;5028077;28;20091;-68
2021/11/26 00:38:03;;;;;;;54.80;18.50;;;;;;;;;;5028411;28;20133;-68
2021/11/26 00:40:29;;;;;;;49.03;17.10;;;;;;;;;;5027237;28;20069;-68
2021/11/26 00:42:56;;;;;;;56.65;18.13;;;;;;;;;;5026584;28;20049;-68
2021/11/26 00:45:24;;;;;;;54.90;19.50;;;;;;;;;;5030408;28;20053;-68
2021/11/26 00:47:50;;;;;;;51.50;18.05;;;;;;;;;;5027371;28;20061;-69
2021/11/26 00:50:19;;;;;;;57.28;18.83;;;;;;;;;;5026242;28;20045;-68
2021/11/26 00:52:45;;;;;;;49.53;18.73;;;;;;;;;;5028557;28;20076;-68
2021/11/26 00:55:13;;;;;;;46.25;14.80;;;;;;;;;;5028308;28;20053;-68
2021/11/26 00:57:40;;;;;;;62.05;19.27;;;;;;;;;;5028727;28;20462;-68
2021/11/26 01:00:09;;;;;;;53.97;18.38;;;;;;;;;;5026740;28;20057;-68
2021/11/26 01:03:17;;;;;;;53.08;17.85;;;;;;;;;;5028076;28;20131;-68
2021/11/26 01:05:46;;;;;;;53.33;16.17;;;;;;;;;;5026323;28;20049;-68
2021/11/26 01:08:13;;;;;;;44.92;16.42;;;;;;;;;;5026951;28;20057;-68
2021/11/26 01:10:40;;;;;;;48.13;16.13;;;;;;;;;;5028120;28;20057;-68
2021/11/26 01:13:08;;;;;;;54.60;18.33;;;;;;;;;;5028126;28;20427;-68
2021/11/26 01:15:36;;;;;;;50.95;16.65;;;;;;;;;;5026335;28;20056;-68
2021/11/26 01:18:03;;;;;;;53.00;18.38;;;;;;;;;;5025904;28;20045;-68
2021/11/26 01:20:32;;;;;;;60.90;19.17;;;;;;;;;;5024843;28;20450;-69
2021/11/26 01:23:00;;;;;;;51.47;16.65;;;;;;;;;;5027892;28;20073;-68
2021/11/26 01:25:27;;;;;;;53.20;19.33;;;;;;;;;;5028275;28;20077;-68
2021/11/26 01:27:54;;;;;;;51.17;18.25;;;;;;;;;;5025985;28;20045;-68
2021/11/26 01:30:26;;;;;;;56.20;18.48;;;;;;;;;;5023926;28;20141;-68
2021/11/26 01:32:54;;;;;;;54.13;18.50;;;;;;;;;;5026633;28;20054;-68
2021/11/26 01:35:21;;;;;;;49.75;18.95;;;;;;;;;;5025034;28;20696;-68
2021/11/26 01:37:47;;;;;;;51.55;18.83;;;;;;;;;;5025512;28;20138;-68
2021/11/26 01:40:16;;;;;;;48.33;17.75;;;;;;;;;;5025888;28;20092;-69
2021/11/26 01:42:44;;;;;;;60.00;18.63;;;;;;;;;;5026997;28;20140;-69
2021/11/26 01:45:11;;;;;;;54.17;19.70;;;;;;;;;;5028239;28;20100;-68
2021/11/26 01:47:37;;;;;;;51.10;18.35;;;;;;;;;;5026531;28;20049;-68
2021/11/26 01:50:05;;;;;;;54.60;17.05;;;;;;;;;;5022977;28;20566;-68
2021/11/26 01:52:31;;;;;;;44.63;17.73;;;;;;;;;;5027715;28;20530;-68
2021/11/26 01:54:58;;;;;;;42.65;17.23;;;;;;;;;;5026988;28;20584;-68
2021/11/26 01:57:26;;;;;;;47.47;16.27;;;;;;;;;;5027792;28;20073;-68
2021/11/26 01:59:53;;;;;;;51.70;18.70;;;;;;;;;;5023450;28;20073;-69
2021/11/26 02:02:20;;;;;;;47.33;18.02;;;;;;;;;;5027361;28;20119;-68
2021/11/26 02:04:47;;;;;;;46.42;17.48;;;;;;;;;;5026012;28;20073;-69
2021/11/26 02:07:14;;;;;;;48.10;15.20;;;;;;;;;;5026898;28;20463;-68
2021/11/26 02:09:41;;;;;;;42.05;15.75;;;;;;;;;;5025175;28;20088;-69
2021/11/26 02:12:08;;;;;;;38.70;15.65;;;;;;;;;;5025427;28;20064;-69
2021/11/26 02:14:37;;;;;;;48.55;17.58;;;;;;;;;;5026716;28;20049;-68
2021/11/26 02:17:03;;;;;;;47.88;17.08;;;;;;;;;;5025174;28;20423;-68
2021/11/26 02:19:30;;;;;;;46.03;17.35;;;;;;;;;;5024180;28;20448;-68
2021/11/26 02:21:58;;;;;;;48.70;17.52;;;;;;;;;;5026301;28;20061;-68
2021/11/26 02:24:25;;;;;;;48.13;15.82;;;;;;;;;;5026612;28;20095;-68
2021/11/26 02:26:52;;;;;;;52.22;16.63;;;;;;;;;;5025708;28;20107;-68
2021/11/26 02:29:20;;;;;;;53.83;17.13;;;;;;;;;;5025480;28;20504;-68
2021/11/26 02:31:48;;;;;;;47.10;16.80;;;;;;;;;;5025173;28;20073;-68
2021/11/26 02:34:15;;;;;;;47.08;17.23;;;;;;;;;;5024441;28;20060;-68
2021/11/26 02:36:42;;;;;;;53.45;18.52;;;;;;;;;;5025348;28;20050;-68
2021/11/26 02:39:10;;;;;;;53.92;17.80;;;;;;;;;;5026095;28;21016;-68
2021/11/26 02:41:37;;;;;;;53.58;18.23;;;;;;;;;;5026034;28;20053;-68
2021/11/26 02:44:05;;;;;;;52.42;18.27;;;;;;;;;;5025623;28;20492;-68
2021/11/26 02:46:31;;;;;;;48.83;16.55;;;;;;;;;;5026384;28;20049;-68
2021/11/26 02:48:58;;;;;;;51.17;16.83;;;;;;;;;;5024431;28;20443;-68
2021/11/26 02:51:25;;;;;;;47.00;17.92;;;;;;;;;;5025457;28;20111;-68
2021/11/26 02:53:51;;;;;;;54.22;17.65;;;;;;;;;;5026897;28;20050;-68
2021/11/26 02:56:19;;;;;;;46.67;15.45;;;;;;;;;;5023880;28;20056;-68
2021/11/26 02:58:46;;;;;;;47.03;16.83;;;;;;;;;;5023474;28;20054;-70
2021/11/26 03:01:13;;;;;;;53.72;17.48;;;;;;;;;;5025320;28;20155;-68
2021/11/26 03:03:39;;;;;;;46.72;16.40;;;;;;;;;;5024346;28;20053;-70
2021/11/26 03:06:07;;;;;;;49.60;16.85;;;;;;;;;;5026660;28;20080;-68
2021/11/26 03:08:35;;;;;;;55.05;16.83;;;;;;;;;;5024375;28;20722;-68
2021/11/26 03:11:04;;;;;;;48.60;16.55;;;;;;;;;;5025294;28;20049;-68
2021/11/26 03:13:32;;;;;;;51.97;18.45;;;;;;;;;;5025421;28;20055;-68
2021/11/26 03:15:59;;;;;;;48.20;16.95;;;;;;;;;;5026359;28;20085;-68
2021/11/26 03:18:27;;;;;;;56.55;19.77;;;;;;;;;;5023496;28;20077;-68
2021/11/26 03:20:55;;;;;;;50.47;17.05;;;;;;;;;;5024563;28;20087;-68
2021/11/26 03:23:22;;;;;;;54.83;17.30;;;;;;;;;;5024902;28;20049;-68
2021/11/26 03:25:49;;;;;;;48.97;16.88;;;;;;;;;;5023626;28;20729;-68
2021/11/26 03:28:16;;;;;;;47.70;15.60;;;;;;;;;;5023822;28;20609;-68
2021/11/26 03:30:45;;;;;;;48.25;15.18;;;;;;;;;;5022936;28;20046;-68
2021/11/26 03:33:11;;;;;;;50.40;15.40;;;;;;;;;;5024628;28;20107;-68
2021/11/26 03:35:38;;;;;;;50.15;17.55;;;;;;;;;;5024411;28;20104;-68
2021/11/26 03:38:05;;;;;;;52.90;17.23;;;;;;;;;;5023623;28;20472;-68
2021/11/26 03:40:31;;;;;;;51.03;15.82;;;;;;;;;;5022988;28;20488;-68
2021/11/26 03:42:58;;;;;;;48.45;16.80;;;;;;;;;;5025112;28;20518;-68
2021/11/26 03:45:28;;;;;;;54.58;15.95;;;;;;;;;;5025420;28;20196;-68
2021/11/26 03:47:57;;;;;;;51.22;17.02;;;;;;;;;;5024333;28;20053;-68
2021/11/26 03:50:24;;;;;;;52.20;18.85;;;;;;;;;;5023742;28;20041;-68
2021/11/26 03:52:51;;;;;;;54.00;17.75;;;;;;;;;;5023818;28;20458;-68
2021/11/26 03:55:20;;;;;;;48.28;16.35;;;;;;;;;;5025760;28;20049;-68
2021/11/26 03:57:47;;;;;;;45.58;15.02;;;;;;;;;;5024765;28;20114;-68
2021/11/26 04:00:14;;;;;;;42.35;16.10;;;;;;;;;;5022769;28;20049;-68
2021/11/26 04:02:42;;;;;;;46.42;17.27;;;;;;;;;;5025632;28;20120;-68
2021/11/26 04:05:10;;;;;;;45.05;16.05;;;;;;;;;;5024737;28;20378;-68
2021/11/26 04:07:37;;;;;;;49.70;16.38;;;;;;;;;;5024511;28;20053;-68
2021/11/26 04:10:05;;;;;;;45.15;15.98;;;;;;;;;;5020812;28;20520;-68
2021/11/26 04:12:32;;;;;;;50.63;16.52;;;;;;;;;;5024675;28;20510;-68
2021/11/26 04:14:58;;;;;;;51.05;16.30;;;;;;;;;;5025900;28;20060;-68
2021/11/26 04:17:25;;;;;;;54.38;18.88;;;;;;;;;;5024195;28;20085;-68
2021/11/26 04:19:52;;;;;;;55.05;17.95;;;;;;;;;;5021904;28;20053;-68
2021/11/26 04:22:20;;;;;;;48.72;17.80;;;;;;;;;;5024978;28;20095;-68
2021/11/26 04:24:47;;;;;;;46.65;17.52;;;;;;;;;;5024526;28;20103;-68
2021/11/26 04:27:13;;;;;;;48.75;17.33;;;;;;;;;;5024353;28;20080;-68
2021/11/26 04:29:40;;;;;;;48.10;14.82;;;;;;;;;;5023470;28;20057;-68
2021/11/26 04:32:08;;;;;;;52.58;17.67;;;;;;;;;;5023483;28;20081;-68
2021/11/26 04:34:34;;;;;;;51.90;16.27;;;;;;;;;;5022523;28;20092;-68
2021/11/26 04:37:01;;;;;;;47.92;17.25;;;;;;;;;;5024609;28;20085;-68
2021/11/26 04:39:29;;;;;;;42.55;15.77;;;;;;;;;;5024041;28;20056;-68
2021/11/26 04:41:55;;;;;;;43.30;15.57;;;;;;;;;;5024161;28;20656;-68
2021/11/26 04:44:22;;;;;;;52.97;18.60;;;;;;;;;;5024402;28;20419;-68
2021/11/26 04:46:48;;;;;;;55.92;17.80;;;;;;;;;;5023823;28;20076;-68
2021/11/26 04:49:15;;;;;;;49.80;17.20;;;;;;;;;;5021739;28;20127;-68
2021/11/26 04:51:42;;;;;;;51.00;17.13;;;;;;;;;;5024934;28;20135;-68
2021/11/26 04:54:08;;;;;;;50.95;17.48;;;;;;;;;;5024474;28;20068;-68
2021/11/26 04:56:36;;;;;;;51.80;16.42;;;;;;;;;;5027161;28;20423;-68
2021/11/26 04:59:03;;;;;;;44.75;16.88;;;;;;;;;;5026220;28;20042;-68
2021/11/26 05:01:29;;;;;;;52.72;17.90;;;;;;;;;;5026888;28;20045;-68
2021/11/26 05:03:56;;;;;;;49.10;18.02;;;;;;;;;;5027662;28;20052;-68
2021/11/26 05:06:22;;;;;;;53.90;18.35;;;;;;;;;;5028537;28;20077;-68
2021/11/26 05:08:49;;;;;;;51.60;16.48;;;;;;;;;;5026663;28;20215;-68
2021/11/26 05:11:16;;;;;;;53.83;18.33;;;;;;;;;;5026790;28;20073;-68
2021/11/26 05:13:44;;;;;;;50.20;17.75;;;;;;;;;;5025315;28;20571;-68
2021/11/26 05:16:13;;;;;;;49.45;17.27;;;;;;;;;;5028027;28;20076;-68
2021/11/26 05:18:40;;;;;;;65.57;19.33;;;;;;;;;;5027129;28;20053;-68
2021/11/26 05:21:07;;;;;;;55.33;18.55;;;;;;;;;;5027317;28;20069;-68
2021/11/26 05:23:33;;;;;;;56.63;17.80;;;;;;;;;;5027273;28;20037;-68
2021/11/26 05:26:00;;;;;;;57.20;18.85;;;;;;;;;;5026188;28;20065;-68
2021/11/26 05:28:27;;;;;;;50.40;16.63;;;;;;;;;;5025530;28;20049;-68
2021/11/26 05:30:55;;;;;;;55.25;18.13;;;;;;;;;;5026273;28;20555;-68
2021/11/26 05:33:21;;;;;;;50.88;15.98;;;;;;;;;;5027485;28;20080;-68
2021/11/26 05:35:48;;;;;;;52.70;17.27;;;;;;;;;;5025982;28;20072;-68
2021/11/26 05:38:14;;;;;;;55.30;17.60;;;;;;;;;;5023403;28;20057;-68
2021/11/26 05:40:42;;;;;;;48.40;16.73;;;;;;;;;;5026001;28;20174;-68
2021/11/26 05:43:08;;;;;;;56.55;17.40;;;;;;;;;;5027677;28;20099;-68
2021/11/26 05:45:35;;;;;;;44.30;16.88;;;;;;;;;;5025995;28;20128;-68
2021/11/26 05:48:03;;;;;;;49.63;16.10;;;;;;;;;;5025229;28;20081;-68
2021/11/26 05:50:30;;;;;;;41.63;14.43;;;;;;;;;;5024173;28;20807;-68
2021/11/26 05:52:57;;;;;;;48.40;15.52;;;;;;;;;;5026331;28;20125;-68
2021/11/26 05:55:25;;;;;;;46.40;15.10;;;;;;;;;;5026608;28;20049;-68
2021/11/26 05:57:53;;;;;;;54.38;17.02;;;;;;;;;;5025363;28;20127;-68
2021/11/26 06:00:21;;;;;;;47.13;15.82;;;;;;;;;;5024458;28;20076;-68
2021/11/26 06:02:48;;;;;;;63.58;17.33;;;;;;;;;;5027113;28;20050;-68
2021/11/26 06:05:16;;;;;;;54.30;17.60;;;;;;;;;;5026403;28;20046;-68
2021/11/26 06:07:43;;;;;;;48.90;17.02;;;;;;;;;;5025263;28;20077;-68
2021/11/26 06:10:11;;;;;;;48.35;15.20;;;;;;;;;;5025680;28;20068;-68
2021/11/26 06:12:38;;;;;;;47.58;16.30;;;;;;;;;;5027613;28;20061;-68
2021/11/26 06:15:06;;;;;;;50.28;16.45;;;;;;;;;;5026732;28;20072;-68
2021/11/26 06:17:33;;;;;;;50.22;16.52;;;;;;;;;;5027457;28;20087;-68
2021/11/26 06:20:00;;;;;;;58.50;16.92;;;;;;;;;;5024455;28;20107;-68
2021/11/26 06:22:28;;;;;;;43.35;15.38;;;;;;;;;;5025928;28;20132;-68
2021/11/26 06:24:54;;;;;;;49.45;18.13;;;;;;;;;;5026142;28;20416;-68
2021/11/26 06:27:21;;;;;;;53.45;16.38;;;;;;;;;;5027786;28;20069;-68
2021/11/26 06:29:48;;;;;;;54.17;16.83;;;;;;;;;;5024900;28;20084;-68
2021/11/26 06:32:14;;;;;;;54.35;16.42;;;;;;;;;;5026864;28;20087;-68
2021/11/26 06:34:41;;;;;;;52.50;16.55;;;;;;;;;;5024141;28;20447;-68
2021/11/26 06:37:07;;;;;;;54.47;17.98;;;;;;;;;;5023926;28;20053;-68
2021/11/26 06:39:36;;;;;;;46.83;16.33;;;;;;;;;;5023471;28;20081;-68
2021/11/26 06:42:03;;;;;;;49.92;17.23;;;;;;;;;;5026209;28;20158;-68
2021/11/26 06:44:30;;;;;;;50.42;17.17;;;;;;;;;;5026512;28;20132;-68
2021/11/26 06:46:56;;;;;;;55.55;18.63;;;;;;;;;;5025186;28;20045;-68
2021/11/26 06:49:23;;;;;;;47.38;16.67;;;;;;;;;;5020798;28;20057;-68
2021/11/26 06:51:50;;;;;;;48.00;16.95;;;;;;;;;;5024245;28;20480;-68
2021/11/26 06:54:16;;;;;;;61.60;17.85;;;;;;;;;;5027653;28;20061;-68
2021/11/26 06:56:44;;;;;;;59.78;18.98;;;;;;;;;;5025301;28;20065;-68
2021/11/26 06:59:11;;;;;;;52.75;17.20;;;;;;;;;;5025208;28;20068;-68
2021/11/26 07:01:37;;;;;;;51.03;16.15;;;;;;;;;;5023699;28;20061;-68
2021/11/26 07:04:06;;;;;;;48.13;18.45;;;;;;;;;;5023870;28;20050;-68
2021/11/26 07:06:34;;;;;;;52.97;15.43;;;;;;;;;;5023673;28;20046;-68
2021/11/26 07:09:00;;;;;;;52.25;16.35;;;;;;;;;;5022906;28;20037;-68
2021/11/26 07:11:27;;;;;;;52.72;17.65;;;;;;;;;;5024481;28;20057;-68
2021/11/26 07:13:55;;;;;;;57.20;17.70;;;;;;;;;;5025695;28;20057;-68
2021/11/26 07:16:21;;;;;;;55.35;16.55;;;;;;;;;;5024321;28;20290;-68
2021/11/26 07:18:48;;;;;;;63.85;17.58;;;;;;;;;;5022056;28;20069;-68
2021/11/26 07:21:15;;;;;;;40.72;14.73;;;;;;;;;;5023266;28;20050;-68
2021/11/26 07:23:42;;;;;;;46.90;14.95;;;;;;;;;;5023070;28;20071;-68
2021/11/26 07:26:09;;;;;;;51.10;16.30;;;;;;;;;;5025163;28;20504;-68
2021/11/26 07:28:37;;;;;;;44.25;16.83;;;;;;;;;;5025144;28;20072;-68
2021/11/26 07:31:05;;;;;;;47.80;14.82;;;;;;;;;;5023283;28;20532;-68
2021/11/26 07:33:32;;;;;;;46.40;17.10;;;;;;;;;;5024820;28;20503;-68
2021/11/26 07:35:58;;;;;;;44.83;15.27;;;;;;;;;;5023889;28;20048;-68
2021/11/26 07:38:25;;;;;;;44.22;15.07;;;;;;;;;;5021027;28;20081;-68
2021/11/26 07:40:53;;;;;;;46.15;14.55;;;;;;;;;;5020884;28;20057;-68
2021/11/26 07:43:19;;;;;;;42.03;15.50;;;;;;;;;;5021864;28;20049;-68
2021/11/26 07:45:46;;;;;;;48.03;15.63;;;;;;;;;;5022979;28;20049;-68
2021/11/26 07:48:14;;;;;;;44.53;16.35;;;;;;;;;;5022192;28;20640;-68
2021/11/26 07:50:41;;;;;;;50.95;16.50;;;;;;;;;;5021166;28;20073;-68
2021/11/26 07:53:08;;;;;;;52.85;17.50;;;;;;;;;;5021195;28;20081;-67
2021/11/26 07:55:34;;;;;;;44.53;14.48;;;;;;;;;;5021894;28;20233;-67
2021/11/26 07:58:02;;;;;;;44.28;16.05;;;;;;;;;;5021239;28;20060;-67
2021/11/26 08:00:29;;;;;;;52.95;19.25;;;;;;;;;;5023675;28;20460;-68
2021/11/26 08:02:57;;;;;;;48.38;16.27;;;;;;;;;;5023297;28;20049;-68
2021/11/26 08:05:25;;;;;;;52.60;19.42;;;;;;;;;;5023283;28;20108;-67
2021/11/26 08:07:52;;;;;;;51.72;17.88;;;;;;;;;;5023058;28;20114;-67
2021/11/26 08:10:19;;;;;;;57.20;18.00;;;;;;;;;;5020080;28;20077;-67
2021/11/26 08:12:46;;;;;;;52.53;17.95;;;;;;;;;;5022931;28;20061;-67
2021/11/26 08:15:15;;;;;;;49.42;16.80;;;;;;;;;;5024059;28;20081;-67
2021/11/26 08:17:42;;;;;;;51.97;18.17;;;;;;;;;;5024655;28;20054;-67
2021/11/26 08:20:10;;;;;;;51.85;17.33;;;;;;;;;;5024263;28;20053;-67
2021/11/26 08:22:38;;;;;;;43.50;15.18;;;;;;;;;;5025054;28;20140;-68
2021/11/26 08:25:06;;;;;;;51.47;16.50;;;;;;;;;;5025408;28;20046;-67
2021/11/26 08:27:33;;;;;;;56.72;18.73;;;;;;;;;;5024789;28;20049;-67
2021/11/26 08:29:59;;;;;;;52.33;18.80;;;;;;;;;;5023189;28;20057;-68
2021/11/26 08:32:26;;;;;;;46.10;16.98;;;;;;;;;;5028218;28;20053;-68
2021/11/26 08:34:53;;;;;;;45.00;16.10;;;;;;;;;;5027350;28;20064;-68
2021/11/26 08:37:19;;;;;;;45.03;15.70;;;;;;;;;;5026269;28;20511;-67
2021/11/26 08:39:48;;;;;;;45.97;16.75;;;;;;;;;;5022798;28;20127;-68
2021/11/26 08:42:14;;;;;;;49.35;18.15;;;;;;;;;;5024310;28;20131;-67
2021/11/26 08:44:41;;;;;;;48.47;16.27;;;;;;;;;;5027166;28;20076;-67
2021/11/26 08:47:08;;;;;;;52.47;15.43;;;;;;;;;;5024405;28;20478;-67
2021/11/26 08:49:34;;;;;;;42.20;16.90;;;;;;;;;;5024746;28;20064;-67
2021/11/26 08:52:01;;;;;;;46.15;15.98;;;;;;;;;;5025865;28;20049;-68
2021/11/26 08:54:28;;;;;;;40.85;13.85;;;;;;;;;;5028088;28;20427;-67
2021/11/26 08:56:56;;;;;;;41.63;13.52;;;;;;;;;;5025869;28;20053;-67
2021/11/26 08:59:24;;;;;;;42.95;16.58;;;;;;;;;;5025319;28;20053;-68
2021/11/26 09:01:53;;;;;;;41.30;15.55;;;;;;;;;;5023998;28;20080;-68
2021/11/26 09:04:20;;;;;;;42.22;15.77;;;;;;;;;;5028368;28;20052;-67
2021/11/26 09:06:46;;;;;;;40.25;15.20;;;;;;;;;;5025855;28;20545;-67
2021/11/26 09:09:13;;;;;;;43.00;14.88;;;;;;;;;;5026975;28;20468;-67
2021/11/26 09:11:40;;;;;;;39.78;14.82;;;;;;;;;;5024423;28;20060;-67
2021/11/26 09:14:08;;;;;;;37.92;14.43;;;;;;;;;;5028829;28;20053;-67
2021/11/26 09:16:36;;;;;;;42.50;15.10;;;;;;;;;;5023909;28;20069;-67
2021/11/26 09:19:03;;;;;;;41.65;14.77;;;;;;;;;;5025520;28;20088;-67
2021/11/26 09:21:30;;;;;;;43.22;15.32;;;;;;;;;;5024959;28;20475;-67
2021/11/26 09:23:56;;;;;;;40.00;14.07;;;;;;;;;;5027313;28;20049;-67
2021/11/26 09:26:24;;;;;;;41.33;15.15;;;;;;;;;;5026445;28;20591;-67
2021/11/26 09:28:51;;;;;;;44.45;14.75;;;;;;;;;;5023423;28;20049;-67
2021/11/26 09:31:19;;;;;;;44.85;13.77;;;;;;;;;;5023908;28;20049;-68
2021/11/26 09:33:47;;;;;;;39.75;13.95;;;;;;;;;;5022512;28;20069;-68
2021/11/26 09:36:14;;;;;;;40.97;15.82;;;;;;;;;;5023879;28;20166;-68
2021/11/26 09:38:42;;;;;;;40.90;14.20;;;;;;;;;;5024275;28;20061;-68
2021/11/26 09:41:11;;;;;;;39.92;14.88;;;;;;;;;;5024495;28;20053;-68
2021/11/26 09:43:37;;;;;;;36.42;13.93;;;;;;;;;;5023973;28;20087;-68
2021/11/26 09:46:05;;;;;;;33.67;13.20;;;;;;;;;;5024764;28;20050;-68
2021/11/26 09:48:37;;;;;;;40.13;14.98;;;;;;;;;;5021325;28;20057;-68
2021/11/26 09:51:05;;;;;;;37.45;14.00;;;;;;;;;;5020829;28;20115;-67
2021/11/26 09:53:33;;;;;;;35.47;12.77;;;;;;;;;;5025360;28;20052;-67
2021/11/26 09:56:04;;;;;;;33.83;12.25;;;;;;;;;;5025660;28;20057;-67
2021/11/26 09:58:32;;;;;;;36.00;13.07;;;;;;;;;;5022036;28;20092;-67
2021/11/26 10:01:01;;;;;;;34.45;13.50;;;;;;;;;;5024378;28;20045;-67
2021/11/26 10:03:42;;;;;;;36.63;13.80;;;;;;;;;;5024683;28;20393;-67
2021/11/26 10:06:22;;;;;;;34.33;14.65;;;;;;;;;;5024562;28;20054;-67
2021/11/26 10:09:02;;;;;;;36.67;12.68;;;;;;;;;;5022807;28;20041;-67
2021/11/26 10:11:31;;;;;;;37.50;13.70;;;;;;;;;;5024602;28;20115;-67
2021/11/26 10:13:58;;;;;;;37.78;13.00;;;;;;;;;;5025064;28;20076;-67
2021/11/26 10:16:24;;;;;;;38.22;13.70;;;;;;;;;;5024303;28;20542;-67
2021/11/26 10:18:54;;;;;;;34.60;12.98;;;;;;;;;;5021262;28;20053;-67
2021/11/26 10:21:25;;;;;;;39.15;14.98;;;;;;;;;;5024111;28;20091;-67
2021/11/26 10:23:53;;;;;;;32.40;12.05;;;;;;;;;;5024083;28;20095;-67
2021/11/26 10:26:21;;;;;;;33.60;12.00;;;;;;;;;;5025154;28;20038;-66
2021/11/26 10:28:51;;;;;;;34.47;12.55;;;;;;;;;;5023220;28;20064;-67
2021/11/26 10:31:20;;;;;;;41.72;14.65;;;;;;;;;;5025359;28;20559;-67
2021/11/26 10:33:46;;;;;;;33.63;13.18;;;;;;;;;;5023242;28;20049;-67
2021/11/26 10:36:14;;;;;;;34.15;13.85;;;;;;;;;;5022835;28;20041;-67
2021/11/26 10:38:41;;;;;;;31.77;12.30;;;;;;;;;;5021622;28;20119;-67
2021/11/26 10:41:12;;;;;;;35.40;12.50;;;;;;;;;;5020545;28;20069;-67
2021/11/26 10:43:44;;;;;;;43.08;14.93;;;;;;;;;;5021599;28;20064;-67
2021/11/26 10:46:41;;;;;;;36.75;13.30;;;;;;;;;;5022191;28;20045;-67
2021/11/26 10:57:56;;;;;;;33.83;11.57;;;;;;;;;;5026240;28;20078;-67
2021/11/26 11:00:23;;;;;;;37.15;14.13;;;;;;;;;;5020653;28;20060;-67
2021/11/26 11:02:54;;;;;;;34.25;13.32;;;;;;;;;;5025004;28;20122;-67
2021/11/26 11:05:26;;;;;;;30.83;12.10;;;;;;;;;;5015757;28;20132;-67
2021/11/26 11:07:54;;;;;;;37.35;12.35;;;;;;;;;;5014655;28;21052;-67
2021/11/26 11:10:27;;;;;;;29.25;12.07;;;;;;;;;;5011487;28;20944;-67
2021/11/26 11:12:54;;;;;;;33.38;11.20;;;;;;;;;;5017080;28;20122;-67
2021/11/26 11:15:22;;;;;;;26.52;11.23;;;;;;;;;;5014095;28;20050;-67
2021/11/26 11:17:49;;;;;;;33.78;13.68;;;;;;;;;;5018435;28;20053;-67
2021/11/26 11:20:17;;;;;;;31.27;11.70;;;;;;;;;;5011990;28;20053;-67
2021/11/26 11:22:44;;;;;;;32.97;11.55;;;;;;;;;;5016456;28;20128;-67
2021/11/26 11:25:15;;;;;;;32.70;12.23;;;;;;;;;;5015657;28;20081;-67
2021/11/26 11:27:41;;;;;;;29.25;12.05;;;;;;;;;;5016077;28;20100;-67
2021/11/26 11:30:11;;;;;;;32.63;12.52;;;;;;;;;;5013145;28;20089;-67
2021/11/26 11:32:40;;;;;;;29.40;11.38;;;;;;;;;;5017521;28;20110;-67
2021/11/26 11:35:08;;;;;;;32.85;12.23;;;;;;;;;;5017820;28;20077;-67
2021/11/26 11:37:35;;;;;;;36.03;12.45;;;;;;;;;;5017459;28;20115;-67
2021/11/26 11:40:03;;;;;;;31.38;12.77;;;;;;;;;;5015300;28;20053;-67
2021/11/26 11:42:33;;;;;;;29.83;11.90;;;;;;;;;;5018015;28;21086;-67
2021/11/26 11:45:03;;;;;;;31.75;11.63;;;;;;;;;;5018178;28;20053;-67
2021/11/26 11:47:29;;;;;;;31.13;11.00;;;;;;;;;;5019101;28;20050;-67
2021/11/26 11:50:12;;;;;;;27.73;10.80;;;;;;;;;;5016190;28;20052;-67
2021/11/26 11:52:40;;;;;;;37.70;14.13;;;;;;;;;;5017716;28;20103;-67
2021/11/26 11:55:18;;;;;;;35.35;12.82;;;;;;;;;;5017354;28;21383;-67
2021/11/26 11:57:45;;;;;;;33.80;12.30;;;;;;;;;;5018085;28;20081;-67
2021/11/26 12:00:16;;;;;;;37.63;13.75;;;;;;;;;;5016456;28;20089;-67
2021/11/26 12:02:44;;;;;;;29.55;11.35;;;;;;;;;;5019375;28;20053;-67
2021/11/26 12:05:20;;;;;;;29.48;10.65;;;;;;;;;;5018326;28;20140;-67
2021/11/26 12:07:47;;;;;;;29.58;12.07;;;;;;;;;;5021951;28;20057;-67
2021/11/26 12:10:15;;;;;;;30.77;10.82;;;;;;;;;;5020531;28;20056;-67
2021/11/26 12:12:48;;;;;;;26.77;11.30;;;;;;;;;;5021733;28;20061;-67
2021/11/26 12:15:28;;;;;;;34.58;13.02;;;;;;;;;;5021495;28;20507;-68
2021/11/26 12:17:59;;;;;;;28.17;11.23;;;;;;;;;;5023120;28;20076;-68
2021/11/26 12:20:26;;;;;;;28.67;11.07;;;;;;;;;;5020281;28;20085;-68
2021/11/26 12:22:56;;;;;;;30.25;12.05;;;;;;;;;;5022184;28;20539;-68
2021/11/26 12:25:37;;;;;;;33.40;11.48;;;;;;;;;;5021194;28;20058;-67
2021/11/26 12:28:08;;;;;;;28.00;11.77;;;;;;;;;;5019634;28;20045;-68
2021/11/26 12:30:35;;;;;;;33.35;11.82;;;;;;;;;;5020312;28;20064;-68
2021/11/26 12:33:16;;;;;;;30.02;11.90;;;;;;;;;;5021233;28;20140;-68
2021/11/26 12:35:55;;;;;;;32.65;12.15;;;;;;;;;;5019890;28;20045;-68
2021/11/26 12:38:22;;;;;;;28.80;11.55;;;;;;;;;;5018361;28;20084;-68
2021/11/26 12:40:50;;;;;;;29.90;12.65;;;;;;;;;;5019375;28;20496;-68
2021/11/26 12:43:18;;;;;;;31.70;11.45;;;;;;;;;;5019845;28;20060;-68
2021/11/26 12:45:45;;;;;;;31.00;12.85;;;;;;;;;;5020718;28;20539;-68
2021/11/26 12:48:21;;;;;;;31.50;11.18;;;;;;;;;;5019650;28;20527;-68
2021/11/26 12:51:04;;;;;;;32.70;12.35;;;;;;;;;;5020480;28;20053;-68
2021/11/26 12:53:31;;;;;;;29.35;12.52;;;;;;;;;;5020473;28;20110;-68
2021/11/26 12:55:59;;;;;;;31.88;12.05;;;;;;;;;;5020567;28;20139;-68
2021/11/26 12:58:30;;;;;;;27.15;9.75;;;;;;;;;;5018170;28;20065;-68
2021/11/26 13:00:58;;;;;;;28.58;10.65;;;;;;;;;;5019792;28;21469;-68
2021/11/26 13:03:26;;;;;;;27.83;11.35;;;;;;;;;;5020038;28;20057;-68
2021/11/26 13:05:55;;;;;;;27.00;10.98;;;;;;;;;;5018404;28;20053;-69
2021/11/26 13:08:21;;;;;;;26.88;11.45;;;;;;;;;;5017457;28;20784;-68
2021/11/26 13:10:49;;;;;;;26.80;11.82;;;;;;;;;;5017893;28;20188;-68
2021/11/26 13:13:15;;;;;;;28.35;11.02;;;;;;;;;;5013087;28;20049;-68
2021/11/26 13:15:44;;;;;;;25.95;11.65;;;;;;;;;;5017339;28;20053;-68
2021/11/26 13:18:17;;;;;;;26.65;12.35;;;;;;;;;;5017941;28;20679;-68
2021/11/26 13:20:45;;;;;;;27.33;13.65;;;;;;;;;;5019152;28;20049;-68
2021/11/26 13:23:14;;;;;;;30.10;12.55;;;;;;;;;;5020382;28;20497;-68
2021/11/26 13:25:43;;;;;;;33.72;13.73;;;;;;;;;;5021098;28;20655;-68
2021/11/26 13:28:11;;;;;;;30.58;12.43;;;;;;;;;;5018707;28;20567;-68
2021/11/26 13:30:42;;;;;;;37.42;14.95;;;;;;;;;;5018338;28;20107;-68
2021/11/26 13:33:12;;;;;;;32.08;12.10;;;;;;;;;;5020543;28;20511;-68
2021/11/26 13:35:42;;;;;;;32.58;13.27;;;;;;;;;;5018510;28;20060;-68
2021/11/26 13:38:13;;;;;;;33.00;14.35;;;;;;;;;;5020482;28;20056;-68
2021/11/26 13:40:43;;;;;;;38.90;14.00;;;;;;;;;;5019526;28;20067;-68
2021/11/26 13:43:12;;;;;;;36.58;13.35;;;;;;;;;;5019245;28;20053;-68
2021/11/26 13:45:41;;;;;;;32.10;13.93;;;;;;;;;;5019803;28;20056;-68
2021/11/26 13:48:08;;;;;;;40.08;15.75;;;;;;;;;;5019569;28;20053;-68
2021/11/26 13:50:38;;;;;;;34.22;15.48;;;;;;;;;;5018118;28;20133;-68
2021/11/26 13:53:05;;;;;;;33.05;15.02;;;;;;;;;;5018009;28;20103;-68
2021/11/26 13:55:33;;;;;;;39.80;14.43;;;;;;;;;;5017454;28;20174;-68
2021/11/26 13:58:07;;;;;;;36.63;15.85;;;;;;;;;;5015920;28;20122;-68
2021/11/26 14:00:40;;;;;;;34.92;16.40;;;;;;;;;;5016822;28;20077;-69
2021/11/26 14:03:07;;;;;;;39.17;16.60;;;;;;;;;;5016484;28;20131;-68
2021/11/26 14:05:35;;;;;;;35.47;16.92;;;;;;;;;;5018061;28;20103;-68
2021/11/26 14:08:05;;;;;;;31.75;15.27;;;;;;;;;;5018786;28;20140;-68
2021/11/26 14:10:32;;;;;;;36.65;16.40;;;;;;;;;;5016127;28;20889;-68
2021/11/26 14:13:00;;;;;;;46.03;19.80;;;;;;;;;;5018946;28;20081;-68
2021/11/26 14:15:27;;;;;;;37.72;16.00;;;;;;;;;;5016684;28;20139;-68
2021/11/26 14:17:54;;;;;;;27.67;12.90;;;;;;;;;;5019100;28;20127;-68
2021/11/26 14:20:24;;;;;;;37.60;15.57;;;;;;;;;;5017184;28;20060;-68
2021/11/26 14:22:52;;;;;;;38.55;15.15;;;;;;;;;;5018672;28;20515;-68
2021/11/26 14:25:20;;;;;;;34.85;15.57;;;;;;;;;;5018548;28;20049;-68
2021/11/26 14:27:49;;;;;;;36.08;14.70;;;;;;;;;;5016119;28;20611;-68
2021/11/26 14:30:22;;;;;;;33.75;15.52;;;;;;;;;;5016741;28;20059;-68